Pitimbu, Brazil

7:16 PM -03 on March 22, 2017 (GMT -0300)
Presidente Castro Pinto International | | Change Station

Elev 23 ft 7.10 °S, 34.87 °W | Updated 16 minutes ago

Partly Cloudy
Partly Cloudy
81 °F
Feels Like 85 °F
N
13
Wind Variable Wind from East

Today
High -- | Low -- °F
--% Chance of Precip.
Yesterday
High -- | Low -- °F
Precip. -- in
Pressure 29.92 in
Visibility 6.2 miles
Clouds Few 2000 ft
Scattered Clouds 10000 ft
Heat Index 85 °F
Dew Point 73 °F
Humidity 79%
Rainfall 0.00 in
Snow Depth Not available.
5:23 AM 5:28 PM
Waning Crescent, 29% visible
METAR SBJP 222200Z 10011KT 9999 FEW020 SCT100 27/23 Q1013
Pressure 29.92 in
Visibility 6.2 miles
Clouds Few 2000 ft
Scattered Clouds 10000 ft
Heat Index 85 °F
Dew Point 73 °F
Humidity 79%
Rainfall 0.00 in
Snow Depth Not available.
5:23 AM 5:28 PM
Waning Crescent, 29% visible
METAR SBJP 222200Z 10011KT 9999 FEW020 SCT100 27/23 Q1013

Get Severe Weather Alerts

Thanks for signing up!

Be on the lookout for a verification email in your inbox.

You'll start receiving the daily forecast at 8 AM.

×

10-Day Weather Forecast

No radar image for this location.
×

Almanac

Astronomy

Mar. 22, 2017 Rise Set
Actual Time
Civil Twilight
Nautical Twilight
Astronomical Twilight
Moon
Length of Visible Light
Length of Day
Tomorrow will be .
, % of the Moon is Illuminated

Today's Extremes

Country Highs Country Lows

Community

WunderPhotos

Upload Photos

1,962,540 photos uploaded!

WunderBlog® & News

Nearby

Air Quality

  Air Quality AQ Index Pollutant
Not available.

Snow Depth

Station Depth Elevation

Earthquake Activity

City Distance Mag. Time & Date
Minimum magnitude displayed is 2.5.

Earthquake Activity

City Distance Mag. Time & Date
Minimum magnitude displayed is 2.5.

Coastal Water Temperatures

Place Temperature

Stations

Nearby Weather Stations

Station Location Temp. Windchill Dew Point Humidity Wind Precip. Elev Updated Type